createdAt,value
2022-08-28T00:02:01.332Z,19.02
2022-08-28T00:07:23.029Z,19.07
2022-08-28T00:12:47.550Z,19.10
2022-08-28T00:18:09.300Z,19.13
2022-08-28T00:23:42.473Z,19.11
2022-08-28T00:29:06.094Z,19.22
2022-08-28T00:34:32.930Z,19.32
2022-08-28T00:39:55.442Z,19.22
2022-08-28T00:45:19.828Z,19.30
2022-08-28T00:51:01.000Z,19.24
2022-08-28T00:56:22.826Z,19.30
2022-08-28T01:01:46.132Z,19.24
2022-08-28T01:07:10.646Z,19.17
2022-08-28T01:12:33.590Z,19.10
2022-08-28T01:18:04.688Z,19.04
2022-08-28T01:23:42.362Z,18.97
2022-08-28T01:29:04.317Z,18.85
2022-08-28T01:34:26.382Z,18.72
2022-08-28T01:39:48.171Z,18.81
2022-08-28T01:45:15.853Z,18.85
2022-08-28T01:50:38.086Z,18.91
2022-08-28T01:56:04.669Z,19.02
2022-08-28T02:01:26.600Z,19.05
2022-08-28T02:06:48.337Z,19.01
2022-08-28T02:12:10.159Z,18.97
2022-08-28T02:17:32.950Z,19.01
2022-08-28T02:22:55.901Z,19.00
2022-08-28T02:28:17.615Z,18.93
2022-08-28T02:33:42.984Z,18.97
2022-08-28T02:39:04.704Z,19.03
2022-08-28T02:44:26.421Z,19.07
2022-08-28T02:49:48.182Z,19.11
2022-08-28T02:55:12.572Z,19.16
2022-08-28T03:00:34.342Z,19.11
2022-08-28T03:05:56.049Z,18.99
2022-08-28T03:11:17.802Z,19.06
2022-08-28T03:16:40.030Z,19.00
2022-08-28T03:22:01.808Z,19.02
2022-08-28T03:27:23.538Z,19.12
2022-08-28T03:32:45.284Z,19.01
2022-08-28T03:38:07.080Z,19.10
2022-08-28T03:43:29.013Z,19.04
2022-08-28T03:48:52.517Z,19.06
2022-08-28T03:54:14.659Z,19.10
2022-08-28T03:59:36.452Z,19.08
2022-08-28T04:04:58.274Z,19.11
2022-08-28T04:10:20.010Z,19.03
2022-08-28T04:15:42.147Z,19.04
2022-08-28T04:21:10.489Z,18.94
2022-08-28T04:26:36.498Z,18.89
2022-08-28T04:31:58.323Z,18.97
2022-08-28T04:37:20.114Z,19.06
2022-08-28T04:42:45.083Z,18.99
2022-08-28T04:48:13.214Z,18.94
2022-08-28T04:53:37.344Z,19.01
2022-08-28T04:59:01.439Z,19.09
2022-08-28T05:04:23.268Z,19.16
2022-08-28T05:09:45.288Z,19.10
2022-08-28T05:15:07.612Z,19.09
2022-08-28T05:20:34.996Z,19.04
2022-08-28T05:25:57.670Z,19.05
2022-08-28T05:31:21.996Z,19.10
2022-08-28T05:36:43.809Z,19.05
2022-08-28T05:42:05.739Z,19.07
2022-08-28T05:47:32.548Z,19.12
2022-08-28T05:52:54.275Z,19.14
2022-08-28T05:58:31.813Z,19.10
2022-08-28T06:03:58.070Z,19.13
2022-08-28T06:09:28.745Z,19.09
2022-08-28T06:14:51.038Z,19.08
2022-08-28T06:20:12.774Z,19.16
2022-08-28T06:25:45.004Z,19.23
2022-08-28T06:31:24.492Z,19.21
2022-08-28T06:36:53.124Z,19.19
2022-08-28T06:42:15.823Z,19.11
2022-08-28T06:47:37.545Z,19.18
2022-08-28T06:53:00.008Z,19.22
2022-08-28T06:58:21.705Z,19.31
2022-08-28T07:03:45.306Z,19.30
2022-08-28T07:09:09.483Z,19.31
2022-08-28T07:14:31.180Z,19.33
2022-08-28T07:19:52.954Z,19.42
2022-08-28T07:25:14.679Z,19.44
2022-08-28T07:30:36.393Z,19.44
2022-08-28T07:35:59.256Z,19.51
2022-08-28T07:41:24.125Z,19.57
2022-08-28T07:46:46.087Z,19.50
2022-08-28T07:52:09.128Z,19.52
2022-08-28T07:57:32.053Z,19.56
2022-08-28T08:02:53.792Z,19.56
2022-08-28T08:08:15.519Z,19.63
2022-08-28T08:13:39.715Z,19.63
2022-08-28T08:19:02.296Z,19.70
2022-08-28T08:24:26.426Z,19.73
2022-08-28T08:29:49.020Z,19.76
2022-08-28T08:35:12.774Z,19.76
2022-08-28T08:40:35.573Z,19.75
2022-08-28T08:45:57.556Z,19.84
2022-08-28T08:51:26.889Z,19.88
2022-08-28T08:56:49.369Z,19.98
2022-08-28T09:02:18.092Z,20.04
2022-08-28T09:07:53.301Z,20.09
2022-08-28T09:13:26.404Z,20.13
2022-08-28T09:18:49.227Z,20.21
2022-08-28T09:24:24.722Z,20.21
2022-08-28T09:30:14.826Z,20.25
2022-08-28T09:35:37.755Z,20.34
2022-08-28T09:41:28.078Z,20.42
2022-08-28T09:46:51.438Z,20.58
2022-08-28T09:52:25.010Z,20.69
2022-08-28T09:57:48.262Z,20.73
2022-08-28T10:03:28.449Z,20.77
2022-08-28T10:09:02.637Z,20.80
2022-08-28T10:15:00.881Z,20.86
2022-08-28T10:20:49.821Z,20.95
2022-08-28T10:26:27.575Z,20.93
2022-08-28T10:32:11.200Z,21.03
2022-08-28T10:37:45.504Z,21.22
2022-08-28T10:43:11.957Z,21.28
2022-08-28T10:48:41.169Z,21.33
2022-08-28T10:54:40.989Z,21.35
2022-08-28T11:00:12.166Z,21.38
2022-08-28T11:06:11.494Z,21.45
2022-08-28T11:11:44.004Z,21.63
2022-08-28T11:17:11.001Z,21.78
2022-08-28T11:22:44.536Z,21.77
2022-08-28T11:28:40.248Z,21.71
2022-08-28T11:34:02.791Z,21.76
2022-08-28T11:39:24.589Z,21.91
2022-08-28T11:44:46.497Z,21.93
2022-08-28T11:50:15.923Z,21.98
2022-08-28T11:55:50.371Z,22.12
2022-08-28T12:01:14.291Z,22.29
2022-08-28T12:06:45.156Z,22.29
2022-08-28T12:12:45.453Z,22.44
2022-08-28T12:18:10.670Z,22.62
2022-08-28T12:23:36.588Z,22.50
2022-08-28T12:29:00.597Z,22.41
2022-08-28T12:34:40.681Z,22.59
2022-08-28T12:40:37.672Z,22.80
2022-08-28T12:46:04.082Z,22.82
2022-08-28T12:51:27.555Z,22.85
2022-08-28T12:56:49.264Z,22.91
2022-08-28T13:02:11.132Z,22.94
2022-08-28T13:07:55.142Z,22.89
2022-08-28T13:13:24.193Z,22.80
2022-08-28T13:18:55.447Z,22.83
2022-08-28T13:24:24.067Z,22.91
2022-08-28T13:30:00.655Z,22.97
2022-08-28T13:35:22.893Z,23.02
2022-08-28T13:40:57.820Z,22.97
2022-08-28T13:46:20.462Z,22.97
2022-08-28T13:51:42.511Z,23.04
2022-08-28T13:57:04.466Z,23.22
2022-08-28T14:02:45.471Z,23.22
2022-08-28T14:08:07.243Z,23.08
2022-08-28T14:13:29.244Z,23.02
2022-08-28T14:18:52.798Z,23.09
2022-08-28T14:24:14.873Z,23.20
2022-08-28T14:29:38.169Z,23.39
2022-08-28T14:34:59.952Z,23.57
2022-08-28T14:40:21.729Z,23.44
2022-08-28T14:45:50.227Z,23.23
2022-08-28T14:51:12.269Z,23.26
2022-08-28T14:56:34.826Z,23.34
2022-08-28T15:01:59.991Z,23.34
2022-08-28T15:07:22.686Z,23.32
2022-08-28T15:12:44.424Z,23.39
2022-08-28T15:18:07.026Z,23.52
2022-08-28T15:23:29.560Z,23.47
2022-08-28T15:28:55.390Z,23.33
2022-08-28T15:34:26.213Z,23.28
2022-08-28T15:40:06.550Z,23.27
2022-08-28T15:45:28.454Z,23.23
2022-08-28T15:50:50.256Z,23.19
2022-08-28T15:56:18.168Z,23.26
2022-08-28T16:01:40.466Z,23.35
2022-08-28T16:07:02.396Z,23.27
2022-08-28T16:12:25.435Z,23.24
2022-08-28T16:17:47.208Z,23.31
2022-08-28T16:23:10.494Z,23.35
2022-08-28T16:28:32.698Z,23.37
2022-08-28T16:33:54.645Z,23.35
2022-08-28T16:39:16.389Z,23.35
2022-08-28T16:44:38.096Z,23.44
2022-08-28T16:50:01.764Z,23.43
2022-08-28T16:55:23.470Z,23.41
2022-08-28T17:00:52.420Z,23.35
2022-08-28T17:06:18.425Z,23.29
2022-08-28T17:11:40.186Z,23.29
2022-08-28T17:17:01.987Z,23.31
2022-08-28T17:22:32.560Z,23.25
2022-08-28T17:27:54.493Z,23.23
2022-08-28T17:33:16.191Z,23.20
2022-08-28T17:38:38.480Z,23.18
2022-08-28T17:44:01.512Z,23.15
2022-08-28T17:49:24.580Z,23.09
2022-08-28T17:54:46.348Z,23.07
2022-08-28T18:00:11.470Z,23.02
2022-08-28T18:05:34.178Z,22.96
2022-08-28T18:10:55.895Z,22.90
2022-08-28T18:16:18.526Z,22.86
2022-08-28T18:21:41.010Z,22.81
2022-08-28T18:27:03.142Z,22.72
2022-08-28T18:32:25.020Z,22.56
2022-08-28T18:37:46.818Z,22.49
2022-08-28T18:43:13.705Z,22.37
2022-08-28T18:48:36.316Z,22.19
2022-08-28T18:54:00.881Z,22.09
2022-08-28T18:59:23.850Z,22.01
2022-08-28T19:04:45.622Z,21.91
2022-08-28T19:10:22.759Z,21.85
2022-08-28T19:15:52.524Z,21.80
2022-08-28T19:21:19.569Z,21.77
2022-08-28T19:26:41.296Z,21.79
2022-08-28T19:32:04.168Z,21.74
2022-08-28T19:37:26.316Z,21.62
2022-08-28T19:42:49.733Z,21.56
2022-08-28T19:48:12.095Z,21.53
2022-08-28T19:53:34.077Z,21.54
2022-08-28T19:58:59.031Z,21.48
2022-08-28T20:04:20.894Z,21.45
2022-08-28T20:09:42.699Z,21.36
2022-08-28T20:15:07.408Z,21.29
2022-08-28T20:20:30.235Z,21.21
2022-08-28T20:25:52.024Z,21.17
2022-08-28T20:31:16.938Z,21.05
2022-08-28T20:36:38.967Z,20.90
2022-08-28T20:42:00.784Z,20.86
2022-08-28T20:47:22.638Z,20.70
2022-08-28T20:52:45.603Z,20.63
2022-08-28T20:58:07.470Z,20.53
2022-08-28T21:03:29.176Z,20.69
2022-08-28T21:08:50.926Z,20.61
2022-08-28T21:14:13.269Z,20.60
2022-08-28T21:19:40.136Z,20.45
2022-08-28T21:25:07.158Z,20.33
2022-08-28T21:30:29.895Z,20.20
2022-08-28T21:35:51.717Z,20.08
2022-08-28T21:41:14.363Z,19.79
2022-08-28T21:46:36.069Z,19.67
2022-08-28T21:52:01.157Z,19.75
2022-08-28T21:57:22.907Z,19.80
2022-08-28T22:02:44.805Z,19.78
2022-08-28T22:08:07.277Z,19.75
2022-08-28T22:13:29.109Z,19.68
2022-08-28T22:18:51.260Z,19.34
2022-08-28T22:24:13.389Z,19.28
2022-08-28T22:29:36.572Z,19.37
2022-08-28T22:34:58.335Z,19.19
2022-08-28T22:40:21.668Z,19.51
2022-08-28T22:45:46.350Z,19.33
2022-08-28T22:51:12.546Z,19.12
2022-08-28T22:56:34.263Z,19.28
2022-08-28T23:01:58.735Z,19.27
2022-08-28T23:07:20.539Z,19.38
2022-08-28T23:12:42.749Z,19.32
2022-08-28T23:18:04.593Z,19.36
2022-08-28T23:23:26.348Z,19.45
2022-08-28T23:28:48.186Z,19.46
2022-08-28T23:34:10.082Z,19.39
2022-08-28T23:39:32.622Z,19.37
2022-08-28T23:44:55.004Z,19.41
2022-08-28T23:50:20.881Z,19.28
2022-08-28T23:55:42.786Z,19.27
